Flight Track Log - Related Links

Times and Time Zones

All times are in EDT time to prevent confusion due to time zone crossing. See the QXE2346 flight status page for this flight to view local times or setup timezone preferences in your user account.


Time Position Orientation Groundspeed Altitude Reporting Facility
EDT Latitude Longitude Course Direction KTS MPH feet Rate Location/Type
Wed 08:45:00 PM 46.0225 -122.6556 350° North  Level FlightAware Approximate
Wed 08:46:00 PM 46.0955 -122.6691 352° North  Level FlightAware Approximate
Wed 08:47:00 PM 46.1687 -122.6836 354° North  Level FlightAware Approximate
Wed 08:48:00 PM 46.2422 -122.6941 354° North  Level FlightAware Approximate
Wed 08:49:00 PM 46.3141 -122.7154 341° North  Level FlightAware Approximate
Wed 08:50:00 PM 46.3878 -122.7134 North  Level FlightAware Approximate
Wed 08:51:00 PM 46.4616 -122.7101 North  Level FlightAware Approximate
Wed 08:52:00 PM 46.5354 -122.7067 North  Level FlightAware Approximate
Wed 08:53:00 PM 46.6092 -122.7034 North  Level FlightAware Approximate
Wed 08:54:00 PM 46.6830 -122.7000 North  Level FlightAware Approximate
Wed 08:55:00 PM 46.7569 -122.7000 North  Level FlightAware Approximate
Wed 08:56:00 PM 46.8254 -122.6746 34° Northeast  Level FlightAware Approximate
Wed 08:57:00 PM 46.8843 -122.6098 42° Northeast  Level FlightAware Approximate
Wed 08:58:00 PM 46.9427 -122.5453 19° North  Level FlightAware Approximate
Wed 08:59:00 PM 47.0131 -122.5134 10° North  Level FlightAware Approximate
Wed 09:00:00 PM 47.0852 -122.4908 19° North  Level FlightAware Approximate
Wed 09:01:00 PM 47.1576 -122.4718 North  Level FlightAware Approximate
Wed 09:02:00 PM 47.2311 -122.4631 10° North  Level FlightAware Approximate
Wed 09:03:00 PM 47.3042 -122.4500 North  Level FlightAware Approximate
Wed 09:04:00 PM 47.3780 -122.4500 North  Level FlightAware Approximate
Wed 09:05:00 PM 47.4519 -122.4500 North  Level FlightAware Approximate
Wed 09:06:00 PM 47.4911 -122.4142 110° East  Level FlightAware Approximate
Wed 09:07:00 PM 47.4491 -122.3262 132° Southeast  Level FlightAware Approximate
Wed 09:08:00 PM 47.4499 -122.3118 132° Southeast  Level Estimated
Wed 09:09:00 PM 47.4499 -122.3118 132° Southeast  Level Estimated
Wed 09:10:00 PM 47.4499 -122.3118 132° Southeast  Level Estimated
Wed 09:11:00 PM 47.4499 -122.3118 132° Southeast  Level Estimated
Wed 09:12:00 PM 47.4499 -122.3118 132° Southeast  Level Estimated
Wed 09:13:00 PM 47.4499 -122.3118 132° Southeast  Level Estimated
Wed 09:14:00 PM 47.4499 -122.3118 132° Southeast  Level Estimated
Wed 09:15:00 PM 47.4499 -122.3118 132° Southeast  Level Estimated
Wed 09:16:00 PM 47.4499 -122.3118 132° Southeast  Level Estimated
Wed 09:17:00 PM 47.4499 -122.3118 132° Southeast  Level Estimated
Wed 09:18:00 PM 47.4499 -122.3118 132° Southeast  Level Estimated
Wed 09:19:00 PM 47.4499 -122.3118 132° Southeast  Level Estimated
Wed 09:20:00 PM 47.4499 -122.3118 132° Southeast  Level Estimated
Wed 09:21:00 PM 47.4499 -122.3118 132° Southeast  Level Estimated
Wed 09:22:00 PM 47.4499 -122.3118 132° Southeast  Level Estimated
Wed 09:23:00 PM 47.4499 -122.3118 132° Southeast  Level Estimated

Login

Don't have an account? Register now (free) for customized features, flight alerts, and more!